sensor_id;sensor_type;location;lat;lon;timestamp;pressure;altitude;pressure_sealevel;temperature
17142;BMP180;32805;53.556;9.944;2023-02-01T00:02:02;100882.00;;;5.70
17142;BMP180;32805;53.556;9.944;2023-02-01T00:04:29;100883.00;;;5.70
17142;BMP180;32805;53.556;9.944;2023-02-01T00:06:57;100875.00;;;5.70
17142;BMP180;32805;53.556;9.944;2023-02-01T00:09:25;100872.00;;;5.70
17142;BMP180;32805;53.556;9.944;2023-02-01T00:11:53;100874.00;;;5.60
17142;BMP180;32805;53.556;9.944;2023-02-01T00:14:21;100887.00;;;5.60
17142;BMP180;32805;53.556;9.944;2023-02-01T00:16:49;100878.00;;;5.70
17142;BMP180;32805;53.556;9.944;2023-02-01T00:19:18;100876.00;;;5.70
17142;BMP180;32805;53.556;9.944;2023-02-01T00:21:45;100870.00;;;5.70
17142;BMP180;32805;53.556;9.944;2023-02-01T00:24:13;100866.00;;;5.70
17142;BMP180;32805;53.556;9.944;2023-02-01T00:26:42;100886.00;;;5.80
17142;BMP180;32805;53.556;9.944;2023-02-01T00:29:13;100870.00;;;5.80
17142;BMP180;32805;53.556;9.944;2023-02-01T00:31:41;100870.00;;;5.80
17142;BMP180;32805;53.556;9.944;2023-02-01T00:34:11;100880.00;;;5.80
17142;BMP180;32805;53.556;9.944;2023-02-01T00:36:41;100872.00;;;5.80
17142;BMP180;32805;53.556;9.944;2023-02-01T00:39:09;100873.00;;;5.90
17142;BMP180;32805;53.556;9.944;2023-02-01T00:41:37;100879.00;;;5.90
17142;BMP180;32805;53.556;9.944;2023-02-01T00:44:07;100863.00;;;5.90
17142;BMP180;32805;53.556;9.944;2023-02-01T00:46:34;100882.00;;;6.00
17142;BMP180;32805;53.556;9.944;2023-02-01T00:49:02;100862.00;;;6.00
17142;BMP180;32805;53.556;9.944;2023-02-01T00:51:30;100900.00;;;6.00
17142;BMP180;32805;53.556;9.944;2023-02-01T00:53:59;100859.00;;;6.00
17142;BMP180;32805;53.556;9.944;2023-02-01T00:56:27;100858.00;;;6.00
17142;BMP180;32805;53.556;9.944;2023-02-01T00:58:54;100864.00;;;6.00
17142;BMP180;32805;53.556;9.944;2023-02-01T01:01:24;100857.00;;;6.00
17142;BMP180;32805;53.556;9.944;2023-02-01T01:03:53;100855.00;;;6.10
17142;BMP180;32805;53.556;9.944;2023-02-01T01:06:23;100859.00;;;6.10
17142;BMP180;32805;53.556;9.944;2023-02-01T01:08:51;100862.00;;;6.10
17142;BMP180;32805;53.556;9.944;2023-02-01T01:11:23;100844.00;;;6.10
17142;BMP180;32805;53.556;9.944;2023-02-01T01:13:52;100856.00;;;6.10
17142;BMP180;32805;53.556;9.944;2023-02-01T01:16:21;100844.00;;;6.10
17142;BMP180;32805;53.556;9.944;2023-02-01T01:18:50;100850.00;;;6.10
17142;BMP180;32805;53.556;9.944;2023-02-01T01:21:18;100845.00;;;6.10
17142;BMP180;32805;53.556;9.944;2023-02-01T01:23:46;100850.00;;;6.10
17142;BMP180;32805;53.556;9.944;2023-02-01T01:26:16;100857.00;;;6.00
17142;BMP180;32805;53.556;9.944;2023-02-01T01:28:46;100854.00;;;6.20
17142;BMP180;32805;53.556;9.944;2023-02-01T01:31:15;100860.00;;;6.10
17142;BMP180;32805;53.556;9.944;2023-02-01T01:33:44;100832.00;;;6.10
17142;BMP180;32805;53.556;9.944;2023-02-01T01:36:14;100819.00;;;6.10
17142;BMP180;32805;53.556;9.944;2023-02-01T01:38:42;100833.00;;;6.10
17142;BMP180;32805;53.556;9.944;2023-02-01T01:41:13;100815.00;;;6.20
17142;BMP180;32805;53.556;9.944;2023-02-01T01:43:49;100805.00;;;6.20
17142;BMP180;32805;53.556;9.944;2023-02-01T01:46:19;100805.00;;;6.20
17142;BMP180;32805;53.556;9.944;2023-02-01T01:48:50;100816.00;;;6.30
17142;BMP180;32805;53.556;9.944;2023-02-01T01:51:21;100797.00;;;6.30
17142;BMP180;32805;53.556;9.944;2023-02-01T01:53:58;100820.00;;;6.20
17142;BMP180;32805;53.556;9.944;2023-02-01T01:56:28;100794.00;;;6.20
17142;BMP180;32805;53.556;9.944;2023-02-01T01:58:59;100794.00;;;6.30
17142;BMP180;32805;53.556;9.944;2023-02-01T02:01:27;100793.00;;;6.20
17142;BMP180;32805;53.556;9.944;2023-02-01T02:03:56;100786.00;;;6.20
17142;BMP180;32805;53.556;9.944;2023-02-01T02:06:32;100798.00;;;6.30
17142;BMP180;32805;53.556;9.944;2023-02-01T02:09:01;100789.00;;;6.30
17142;BMP180;32805;53.556;9.944;2023-02-01T02:11:33;100793.00;;;6.30
17142;BMP180;32805;53.556;9.944;2023-02-01T02:14:03;100798.00;;;6.30
17142;BMP180;32805;53.556;9.944;2023-02-01T02:16:46;100769.00;;;6.20
17142;BMP180;32805;53.556;9.944;2023-02-01T02:19:38;100790.00;;;6.20
17142;BMP180;32805;53.556;9.944;2023-02-01T02:22:40;100765.00;;;6.20
17142;BMP180;32805;53.556;9.944;2023-02-01T02:28:23;100775.00;;;6.00
17142;BMP180;32805;53.556;9.944;2023-02-01T02:31:15;100771.00;;;6.10
17142;BMP180;32805;53.556;9.944;2023-02-01T02:33:56;100767.00;;;6.00
17142;BMP180;32805;53.556;9.944;2023-02-01T02:36:37;100760.00;;;5.90
17142;BMP180;32805;53.556;9.944;2023-02-01T02:39:10;100750.00;;;5.90
17142;BMP180;32805;53.556;9.944;2023-02-01T02:41:47;100757.00;;;5.80
17142;BMP180;32805;53.556;9.944;2023-02-01T02:44:46;100748.00;;;5.70
17142;BMP180;32805;53.556;9.944;2023-02-01T02:47:36;100765.00;;;5.70
17142;BMP180;32805;53.556;9.944;2023-02-01T02:50:18;100740.00;;;5.70
17142;BMP180;32805;53.556;9.944;2023-02-01T02:53:12;100741.00;;;5.70
17142;BMP180;32805;53.556;9.944;2023-02-01T02:55:59;100732.00;;;5.60
17142;BMP180;32805;53.556;9.944;2023-02-01T02:58:46;100723.00;;;5.60
17142;BMP180;32805;53.556;9.944;2023-02-01T03:01:32;100724.00;;;5.60
17142;BMP180;32805;53.556;9.944;2023-02-01T03:04:18;100711.00;;;5.60
17142;BMP180;32805;53.556;9.944;2023-02-01T03:06:49;100717.00;;;5.70
17142;BMP180;32805;53.556;9.944;2023-02-01T03:09:22;100714.00;;;5.70
17142;BMP180;32805;53.556;9.944;2023-02-01T03:11:56;100719.00;;;5.60
17142;BMP180;32805;53.556;9.944;2023-02-01T03:14:45;100711.00;;;5.60
17142;BMP180;32805;53.556;9.944;2023-02-01T03:17:19;100690.00;;;5.60
17142;BMP180;32805;53.556;9.944;2023-02-01T03:19:50;100705.00;;;5.60
17142;BMP180;32805;53.556;9.944;2023-02-01T03:22:23;100716.00;;;5.60
17142;BMP180;32805;53.556;9.944;2023-02-01T03:24:53;100706.00;;;5.50
17142;BMP180;32805;53.556;9.944;2023-02-01T03:27:24;100711.00;;;5.40
17142;BMP180;32805;53.556;9.944;2023-02-01T03:29:58;100708.00;;;5.40
17142;BMP180;32805;53.556;9.944;2023-02-01T03:32:28;100720.00;;;5.30
17142;BMP180;32805;53.556;9.944;2023-02-01T03:34:55;100703.00;;;5.10
17142;BMP180;32805;53.556;9.944;2023-02-01T03:37:27;100700.00;;;5.00
17142;BMP180;32805;53.556;9.944;2023-02-01T03:39:59;100704.00;;;5.00
17142;BMP180;32805;53.556;9.944;2023-02-01T03:42:35;100695.00;;;5.00
17142;BMP180;32805;53.556;9.944;2023-02-01T03:45:08;100692.00;;;4.90
17142;BMP180;32805;53.556;9.944;2023-02-01T03:47:41;100695.00;;;4.80
17142;BMP180;32805;53.556;9.944;2023-02-01T03:50:12;100677.00;;;4.80
17142;BMP180;32805;53.556;9.944;2023-02-01T03:52:44;100678.00;;;4.80
17142;BMP180;32805;53.556;9.944;2023-02-01T03:55:15;100671.00;;;4.70
17142;BMP180;32805;53.556;9.944;2023-02-01T03:57:45;100664.00;;;4.80
17142;BMP180;32805;53.556;9.944;2023-02-01T04:00:18;100671.00;;;4.90
17142;BMP180;32805;53.556;9.944;2023-02-01T04:02:49;100663.00;;;4.90
17142;BMP180;32805;53.556;9.944;2023-02-01T04:05:17;100666.00;;;5.00
17142;BMP180;32805;53.556;9.944;2023-02-01T04:07:55;100657.00;;;5.00
17142;BMP180;32805;53.556;9.944;2023-02-01T04:10:23;100659.00;;;5.10
17142;BMP180;32805;53.556;9.944;2023-02-01T04:12:51;100668.00;;;5.10
17142;BMP180;32805;53.556;9.944;2023-02-01T04:15:19;100663.00;;;5.10
17142;BMP180;32805;53.556;9.944;2023-02-01T04:17:47;100675.00;;;5.10
17142;BMP180;32805;53.556;9.944;2023-02-01T04:20:15;100656.00;;;5.10
17142;BMP180;32805;53.556;9.944;2023-02-01T04:22:43;100651.00;;;5.10
17142;BMP180;32805;53.556;9.944;2023-02-01T04:25:12;100654.00;;;5.10
17142;BMP180;32805;53.556;9.944;2023-02-01T04:27:40;100649.00;;;5.10
17142;BMP180;32805;53.556;9.944;2023-02-01T04:30:08;100646.00;;;5.10
17142;BMP180;32805;53.556;9.944;2023-02-01T04:32:37;100652.00;;;5.10
17142;BMP180;32805;53.556;9.944;2023-02-01T04:35:06;100648.00;;;5.10
17142;BMP180;32805;53.556;9.944;2023-02-01T04:37:34;100651.00;;;5.10
17142;BMP180;32805;53.556;9.944;2023-02-01T04:40:02;100646.00;;;5.00
17142;BMP180;32805;53.556;9.944;2023-02-01T04:42:31;100646.00;;;5.00
17142;BMP180;32805;53.556;9.944;2023-02-01T04:44:59;100648.00;;;4.90
17142;BMP180;32805;53.556;9.944;2023-02-01T04:47:27;100634.00;;;4.90
17142;BMP180;32805;53.556;9.944;2023-02-01T04:49:54;100629.00;;;4.90
17142;BMP180;32805;53.556;9.944;2023-02-01T04:52:22;100637.00;;;4.90
17142;BMP180;32805;53.556;9.944;2023-02-01T04:54:50;100634.00;;;4.90
17142;BMP180;32805;53.556;9.944;2023-02-01T04:57:17;100642.00;;;4.80
17142;BMP180;32805;53.556;9.944;2023-02-01T04:59:47;100640.00;;;4.80
17142;BMP180;32805;53.556;9.944;2023-02-01T05:02:14;100647.00;;;4.70
17142;BMP180;32805;53.556;9.944;2023-02-01T05:04:42;100666.00;;;4.60
17142;BMP180;32805;53.556;9.944;2023-02-01T05:07:09;100704.00;;;4.60
17142;BMP180;32805;53.556;9.944;2023-02-01T05:09:37;100668.00;;;4.40
17142;BMP180;32805;53.556;9.944;2023-02-01T05:12:05;100677.00;;;4.20
17142;BMP180;32805;53.556;9.944;2023-02-01T05:14:52;100698.00;;;4.10
17142;BMP180;32805;53.556;9.944;2023-02-01T05:17:19;100714.00;;;3.90
17142;BMP180;32805;53.556;9.944;2023-02-01T05:19:47;100665.00;;;3.70
17142;BMP180;32805;53.556;9.944;2023-02-01T05:22:15;100655.00;;;3.70
17142;BMP180;32805;53.556;9.944;2023-02-01T05:24:42;100646.00;;;3.60
17142;BMP180;32805;53.556;9.944;2023-02-01T05:27:10;100638.00;;;3.60
17142;BMP180;32805;53.556;9.944;2023-02-01T05:29:38;100637.00;;;3.60
17142;BMP180;32805;53.556;9.944;2023-02-01T05:32:09;100627.00;;;3.50
17142;BMP180;32805;53.556;9.944;2023-02-01T05:34:48;100618.00;;;3.50
17142;BMP180;32805;53.556;9.944;2023-02-01T05:37:15;100643.00;;;3.50
17142;BMP180;32805;53.556;9.944;2023-02-01T05:39:43;100656.00;;;3.50
17142;BMP180;32805;53.556;9.944;2023-02-01T05:42:11;100642.00;;;3.40
17142;BMP180;32805;53.556;9.944;2023-02-01T05:44:38;100647.00;;;3.50
17142;BMP180;32805;53.556;9.944;2023-02-01T05:47:07;100666.00;;;3.50
17142;BMP180;32805;53.556;9.944;2023-02-01T05:49:35;100660.00;;;3.50
17142;BMP180;32805;53.556;9.944;2023-02-01T05:52:03;100657.00;;;3.30
17142;BMP180;32805;53.556;9.944;2023-02-01T05:54:31;100658.00;;;3.30
17142;BMP180;32805;53.556;9.944;2023-02-01T05:57:02;100664.00;;;3.30
17142;BMP180;32805;53.556;9.944;2023-02-01T05:59:29;100662.00;;;3.30
17142;BMP180;32805;53.556;9.944;2023-02-01T06:01:57;100642.00;;;3.30
17142;BMP180;32805;53.556;9.944;2023-02-01T06:04:26;100649.00;;;3.30
17142;BMP180;32805;53.556;9.944;2023-02-01T06:06:54;100641.00;;;3.30
17142;BMP180;32805;53.556;9.944;2023-02-01T06:09:21;100649.00;;;3.30
17142;BMP180;32805;53.556;9.944;2023-02-01T06:11:49;100625.00;;;3.40
17142;BMP180;32805;53.556;9.944;2023-02-01T06:14:17;100635.00;;;3.40
17142;BMP180;32805;53.556;9.944;2023-02-01T06:16:44;100646.00;;;3.40
17142;BMP180;32805;53.556;9.944;2023-02-01T06:19:13;100636.00;;;3.50
17142;BMP180;32805;53.556;9.944;2023-02-01T06:21:42;100649.00;;;3.50
17142;BMP180;32805;53.556;9.944;2023-02-01T06:24:10;100632.00;;;3.60
17142;BMP180;32805;53.556;9.944;2023-02-01T06:26:37;100638.00;;;3.60
17142;BMP180;32805;53.556;9.944;2023-02-01T06:29:05;100632.00;;;3.60
17142;BMP180;32805;53.556;9.944;2023-02-01T06:31:33;100624.00;;;3.60
17142;BMP180;32805;53.556;9.944;2023-02-01T06:34:01;100623.00;;;3.70
17142;BMP180;32805;53.556;9.944;2023-02-01T06:36:29;100623.00;;;3.70
17142;BMP180;32805;53.556;9.944;2023-02-01T06:38:58;100624.00;;;3.70
17142;BMP180;32805;53.556;9.944;2023-02-01T06:41:26;100627.00;;;3.90
17142;BMP180;32805;53.556;9.944;2023-02-01T06:43:55;100623.00;;;3.90
17142;BMP180;32805;53.556;9.944;2023-02-01T06:46:23;100638.00;;;4.00
17142;BMP180;32805;53.556;9.944;2023-02-01T06:48:50;100621.00;;;3.90
17142;BMP180;32805;53.556;9.944;2023-02-01T06:51:20;100614.00;;;4.00
17142;BMP180;32805;53.556;9.944;2023-02-01T06:53:48;100615.00;;;4.00
17142;BMP180;32805;53.556;9.944;2023-02-01T06:56:18;100621.00;;;4.00
17142;BMP180;32805;53.556;9.944;2023-02-01T06:58:46;100647.00;;;4.00
17142;BMP180;32805;53.556;9.944;2023-02-01T07:01:15;100629.00;;;4.10
17142;BMP180;32805;53.556;9.944;2023-02-01T07:03:46;100643.00;;;4.10
17142;BMP180;32805;53.556;9.944;2023-02-01T07:06:14;100633.00;;;4.10
17142;BMP180;32805;53.556;9.944;2023-02-01T07:08:42;100642.00;;;4.20
17142;BMP180;32805;53.556;9.944;2023-02-01T07:11:13;100627.00;;;4.20
17142;BMP180;32805;53.556;9.944;2023-02-01T07:13:42;100623.00;;;4.20
17142;BMP180;32805;53.556;9.944;2023-02-01T07:16:11;100657.00;;;4.30
17142;BMP180;32805;53.556;9.944;2023-02-01T07:18:39;100641.00;;;4.30
17142;BMP180;32805;53.556;9.944;2023-02-01T07:21:07;100655.00;;;4.30
17142;BMP180;32805;53.556;9.944;2023-02-01T07:23:36;100647.00;;;4.40
17142;BMP180;32805;53.556;9.944;2023-02-01T07:26:07;100652.00;;;4.50
17142;BMP180;32805;53.556;9.944;2023-02-01T07:28:35;100655.00;;;4.60
17142;BMP180;32805;53.556;9.944;2023-02-01T07:31:07;100639.00;;;4.60
17142;BMP180;32805;53.556;9.944;2023-02-01T07:33:36;100632.00;;;4.60
17142;BMP180;32805;53.556;9.944;2023-02-01T07:36:10;100612.00;;;4.70
17142;BMP180;32805;53.556;9.944;2023-02-01T07:38:38;100622.00;;;4.70
17142;BMP180;32805;53.556;9.944;2023-02-01T07:41:08;100614.00;;;4.70
17142;BMP180;32805;53.556;9.944;2023-02-01T07:43:36;100632.00;;;4.80
17142;BMP180;32805;53.556;9.944;2023-02-01T07:46:06;100628.00;;;4.80
17142;BMP180;32805;53.556;9.944;2023-02-01T07:48:34;100623.00;;;4.90
17142;BMP180;32805;53.556;9.944;2023-02-01T07:51:03;100630.00;;;4.90
17142;BMP180;32805;53.556;9.944;2023-02-01T07:53:35;100627.00;;;4.90
17142;BMP180;32805;53.556;9.944;2023-02-01T07:56:10;100642.00;;;4.90
17142;BMP180;32805;53.556;9.944;2023-02-01T07:58:38;100644.00;;;5.00
17142;BMP180;32805;53.556;9.944;2023-02-01T08:01:13;100649.00;;;5.00
17142;BMP180;32805;53.556;9.944;2023-02-01T08:03:52;100639.00;;;5.00
17142;BMP180;32805;53.556;9.944;2023-02-01T08:06:21;100645.00;;;5.00
17142;BMP180;32805;53.556;9.944;2023-02-01T08:08:49;100651.00;;;5.00
17142;BMP180;32805;53.556;9.944;2023-02-01T08:11:18;100648.00;;;5.10
17142;BMP180;32805;53.556;9.944;2023-02-01T08:13:47;100647.00;;;5.10
17142;BMP180;32805;53.556;9.944;2023-02-01T08:16:18;100655.00;;;5.20
17142;BMP180;32805;53.556;9.944;2023-02-01T08:18:46;100647.00;;;5.20
17142;BMP180;32805;53.556;9.944;2023-02-01T08:21:16;100665.00;;;5.30
17142;BMP180;32805;53.556;9.944;2023-02-01T08:23:44;100669.00;;;5.50
17142;BMP180;32805;53.556;9.944;2023-02-01T08:26:16;100672.00;;;5.60
17142;BMP180;32805;53.556;9.944;2023-02-01T08:28:47;100692.00;;;5.80
17142;BMP180;32805;53.556;9.944;2023-02-01T08:31:18;100663.00;;;5.90
17142;BMP180;32805;53.556;9.944;2023-02-01T08:33:49;100735.00;;;6.10
17142;BMP180;32805;53.556;9.944;2023-02-01T08:36:17;100664.00;;;6.00
17142;BMP180;32805;53.556;9.944;2023-02-01T08:38:46;100666.00;;;5.90
17142;BMP180;32805;53.556;9.944;2023-02-01T08:41:16;100655.00;;;5.70
17142;BMP180;32805;53.556;9.944;2023-02-01T08:43:44;100674.00;;;5.70
17142;BMP180;32805;53.556;9.944;2023-02-01T08:46:12;100657.00;;;5.70
17142;BMP180;32805;53.556;9.944;2023-02-01T08:48:41;100660.00;;;5.60
17142;BMP180;32805;53.556;9.944;2023-02-01T08:51:11;100665.00;;;5.70
17142;BMP180;32805;53.556;9.944;2023-02-01T08:53:42;100642.00;;;5.70
17142;BMP180;32805;53.556;9.944;2023-02-01T08:56:11;100634.00;;;5.70
17142;BMP180;32805;53.556;9.944;2023-02-01T08:58:39;100648.00;;;5.70
17142;BMP180;32805;53.556;9.944;2023-02-01T09:01:11;100647.00;;;5.70
17142;BMP180;32805;53.556;9.944;2023-02-01T09:03:41;100641.00;;;5.80
17142;BMP180;32805;53.556;9.944;2023-02-01T09:06:11;100645.00;;;6.00
17142;BMP180;32805;53.556;9.944;2023-02-01T09:08:40;100642.00;;;6.10
17142;BMP180;32805;53.556;9.944;2023-02-01T09:11:11;100641.00;;;6.00
17142;BMP180;32805;53.556;9.944;2023-02-01T09:13:40;100647.00;;;6.00
17142;BMP180;32805;53.556;9.944;2023-02-01T09:16:08;100653.00;;;6.10
17142;BMP180;32805;53.556;9.944;2023-02-01T09:18:36;100625.00;;;6.10
17142;BMP180;32805;53.556;9.944;2023-02-01T09:21:23;100631.00;;;6.20
17142;BMP180;32805;53.556;9.944;2023-02-01T09:23:51;100638.00;;;6.20
17142;BMP180;32805;53.556;9.944;2023-02-01T09:26:19;100640.00;;;6.10
17142;BMP180;32805;53.556;9.944;2023-02-01T09:28:59;100644.00;;;6.00
17142;BMP180;32805;53.556;9.944;2023-02-01T09:31:32;100645.00;;;5.90
17142;BMP180;32805;53.556;9.944;2023-02-01T09:34:06;100651.00;;;5.90
17142;BMP180;32805;53.556;9.944;2023-02-01T09:36:37;100656.00;;;5.90
17142;BMP180;32805;53.556;9.944;2023-02-01T09:39:04;100635.00;;;5.90
17142;BMP180;32805;53.556;9.944;2023-02-01T09:41:40;100637.00;;;6.00
17142;BMP180;32805;53.556;9.944;2023-02-01T09:44:20;100651.00;;;6.00
17142;BMP180;32805;53.556;9.944;2023-02-01T09:46:55;100631.00;;;6.00
17142;BMP180;32805;53.556;9.944;2023-02-01T09:49:27;100639.00;;;6.20
17142;BMP180;32805;53.556;9.944;2023-02-01T09:51:59;100647.00;;;6.30
17142;BMP180;32805;53.556;9.944;2023-02-01T09:54:37;100667.00;;;6.40
17142;BMP180;32805;53.556;9.944;2023-02-01T09:57:16;100630.00;;;6.40
17142;BMP180;32805;53.556;9.944;2023-02-01T09:59:47;100634.00;;;6.40
17142;BMP180;32805;53.556;9.944;2023-02-01T10:02:18;100640.00;;;6.50
17142;BMP180;32805;53.556;9.944;2023-02-01T10:04:47;100644.00;;;6.50
17142;BMP180;32805;53.556;9.944;2023-02-01T10:07:25;100643.00;;;6.60
17142;BMP180;32805;53.556;9.944;2023-02-01T10:09:59;100630.00;;;6.50
17142;BMP180;32805;53.556;9.944;2023-02-01T10:12:53;100638.00;;;6.50
17142;BMP180;32805;53.556;9.944;2023-02-01T10:15:28;100633.00;;;6.50
17142;BMP180;32805;53.556;9.944;2023-02-01T10:18:12;100636.00;;;6.50
17142;BMP180;32805;53.556;9.944;2023-02-01T10:20:52;100651.00;;;6.50
17142;BMP180;32805;53.556;9.944;2023-02-01T10:23:53;100653.00;;;6.40
17142;BMP180;32805;53.556;9.944;2023-02-01T10:26:32;100658.00;;;6.40
17142;BMP180;32805;53.556;9.944;2023-02-01T10:29:03;100639.00;;;6.30
17142;BMP180;32805;53.556;9.944;2023-02-01T10:31:35;100642.00;;;6.30
17142;BMP180;32805;53.556;9.944;2023-02-01T10:34:13;100623.00;;;6.20
17142;BMP180;32805;53.556;9.944;2023-02-01T10:36:52;100620.00;;;6.00
17142;BMP180;32805;53.556;9.944;2023-02-01T10:39:22;100626.00;;;6.00
17142;BMP180;32805;53.556;9.944;2023-02-01T10:41:50;100602.00;;;6.00
17142;BMP180;32805;53.556;9.944;2023-02-01T10:44:21;100587.00;;;6.00
17142;BMP180;32805;53.556;9.944;2023-02-01T10:46:51;100609.00;;;6.00
17142;BMP180;32805;53.556;9.944;2023-02-01T10:49:24;100593.00;;;6.00
17142;BMP180;32805;53.556;9.944;2023-02-01T10:51:58;100587.00;;;5.90
17142;BMP180;32805;53.556;9.944;2023-02-01T10:54:35;100578.00;;;5.90
17142;BMP180;32805;53.556;9.944;2023-02-01T10:57:07;100575.00;;;5.90
17142;BMP180;32805;53.556;9.944;2023-02-01T10:59:35;100572.00;;;5.80
17142;BMP180;32805;53.556;9.944;2023-02-01T11:02:16;100560.00;;;5.80
17142;BMP180;32805;53.556;9.944;2023-02-01T11:04:46;100557.00;;;5.90
17142;BMP180;32805;53.556;9.944;2023-02-01T11:07:17;100539.00;;;5.90
17142;BMP180;32805;53.556;9.944;2023-02-01T11:09:50;100536.00;;;5.90
17142;BMP180;32805;53.556;9.944;2023-02-01T11:12:25;100540.00;;;5.90
17142;BMP180;32805;53.556;9.944;2023-02-01T11:14:58;100538.00;;;6.10
17142;BMP180;32805;53.556;9.944;2023-02-01T11:17:28;100556.00;;;6.10
17142;BMP180;32805;53.556;9.944;2023-02-01T11:19:58;100531.00;;;6.30
17142;BMP180;32805;53.556;9.944;2023-02-01T11:22:26;100544.00;;;6.30
17142;BMP180;32805;53.556;9.944;2023-02-01T11:24:59;100547.00;;;6.30
17142;BMP180;32805;53.556;9.944;2023-02-01T11:27:28;100530.00;;;6.30
17142;BMP180;32805;53.556;9.944;2023-02-01T11:29:59;100519.00;;;6.40
17142;BMP180;32805;53.556;9.944;2023-02-01T11:32:28;100529.00;;;6.40
17142;BMP180;32805;53.556;9.944;2023-02-01T11:35:00;100520.00;;;6.50
17142;BMP180;32805;53.556;9.944;2023-02-01T11:37:31;100530.00;;;6.40
17142;BMP180;32805;53.556;9.944;2023-02-01T11:40:09;100515.00;;;6.30
17142;BMP180;32805;53.556;9.944;2023-02-01T11:42:54;100513.00;;;6.30
17142;BMP180;32805;53.556;9.944;2023-02-01T11:45:26;100502.00;;;6.30
17142;BMP180;32805;53.556;9.944;2023-02-01T11:47:54;100501.00;;;6.20
17142;BMP180;32805;53.556;9.944;2023-02-01T11:50:28;100497.00;;;6.10
17142;BMP180;32805;53.556;9.944;2023-02-01T11:53:20;100489.00;;;6.10
17142;BMP180;32805;53.556;9.944;2023-02-01T11:56:04;100499.00;;;6.00
17142;BMP180;32805;53.556;9.944;2023-02-01T11:58:46;100494.00;;;5.80
17142;BMP180;32805;53.556;9.944;2023-02-01T12:01:30;100498.00;;;5.70
17142;BMP180;32805;53.556;9.944;2023-02-01T12:04:36;100477.00;;;5.60
17142;BMP180;32805;53.556;9.944;2023-02-01T12:07:14;100482.00;;;5.50
17142;BMP180;32805;53.556;9.944;2023-02-01T12:09:58;100487.00;;;5.50
17142;BMP180;32805;53.556;9.944;2023-02-01T12:12:38;100494.00;;;5.50
17142;BMP180;32805;53.556;9.944;2023-02-01T12:15:22;100477.00;;;5.50
17142;BMP180;32805;53.556;9.944;2023-02-01T12:18:10;100471.00;;;5.40
17142;BMP180;32805;53.556;9.944;2023-02-01T12:21:05;100476.00;;;5.40
17142;BMP180;32805;53.556;9.944;2023-02-01T12:23:44;100489.00;;;5.40
17142;BMP180;32805;53.556;9.944;2023-02-01T12:26:33;100505.00;;;5.30
17142;BMP180;32805;53.556;9.944;2023-02-01T12:29:14;100488.00;;;5.30
17142;BMP180;32805;53.556;9.944;2023-02-01T12:32:07;100512.00;;;5.20
17142;BMP180;32805;53.556;9.944;2023-02-01T12:34:53;100517.00;;;5.10
17142;BMP180;32805;53.556;9.944;2023-02-01T12:37:36;100516.00;;;5.00
17142;BMP180;32805;53.556;9.944;2023-02-01T12:40:19;100541.00;;;4.90
17142;BMP180;32805;53.556;9.944;2023-02-01T12:42:57;100560.00;;;4.80
17142;BMP180;32805;53.556;9.944;2023-02-01T12:45:31;100540.00;;;4.60
17142;BMP180;32805;53.556;9.944;2023-02-01T12:48:06;100530.00;;;4.60
17142;BMP180;32805;53.556;9.944;2023-02-01T12:50:43;100534.00;;;4.60
17142;BMP180;32805;53.556;9.944;2023-02-01T12:53:16;100531.00;;;4.50
17142;BMP180;32805;53.556;9.944;2023-02-01T12:55:49;100528.00;;;4.40
17142;BMP180;32805;53.556;9.944;2023-02-01T12:58:22;100538.00;;;4.40
17142;BMP180;32805;53.556;9.944;2023-02-01T13:00:55;100529.00;;;4.50
17142;BMP180;32805;53.556;9.944;2023-02-01T13:03:32;100508.00;;;4.40
17142;BMP180;32805;53.556;9.944;2023-02-01T13:06:04;100520.00;;;4.50
17142;BMP180;32805;53.556;9.944;2023-02-01T13:08:39;100504.00;;;4.40
17142;BMP180;32805;53.556;9.944;2023-02-01T13:11:11;100507.00;;;4.40
17142;BMP180;32805;53.556;9.944;2023-02-01T13:13:48;100496.00;;;4.40
17142;BMP180;32805;53.556;9.944;2023-02-01T13:16:22;100502.00;;;4.50
17142;BMP180;32805;53.556;9.944;2023-02-01T13:18:59;100493.00;;;4.60
17142;BMP180;32805;53.556;9.944;2023-02-01T13:21:31;100483.00;;;4.60
17142;BMP180;32805;53.556;9.944;2023-02-01T13:24:00;100496.00;;;4.60
17142;BMP180;32805;53.556;9.944;2023-02-01T13:26:27;100497.00;;;4.60
17142;BMP180;32805;53.556;9.944;2023-02-01T13:28:58;100491.00;;;4.50
17142;BMP180;32805;53.556;9.944;2023-02-01T13:31:38;100488.00;;;4.50
17142;BMP180;32805;53.556;9.944;2023-02-01T13:37:27;100491.00;;;4.60
17142;BMP180;32805;53.556;9.944;2023-02-01T13:40:16;100489.00;;;4.70
17142;BMP180;32805;53.556;9.944;2023-02-01T13:42:48;100481.00;;;4.80
17142;BMP180;32805;53.556;9.944;2023-02-01T13:45:19;100483.00;;;4.90
17142;BMP180;32805;53.556;9.944;2023-02-01T13:47:51;100480.00;;;4.90
17142;BMP180;32805;53.556;9.944;2023-02-01T13:50:22;100478.00;;;5.00
17142;BMP180;32805;53.556;9.944;2023-02-01T13:52:54;100480.00;;;5.00
17142;BMP180;32805;53.556;9.944;2023-02-01T13:55:31;100468.00;;;5.10
17142;BMP180;32805;53.556;9.944;2023-02-01T13:58:09;100470.00;;;5.10
17142;BMP180;32805;53.556;9.944;2023-02-01T14:00:39;100482.00;;;5.20
17142;BMP180;32805;53.556;9.944;2023-02-01T14:03:14;100465.00;;;5.20
17142;BMP180;32805;53.556;9.944;2023-02-01T14:06:00;100465.00;;;5.40
17142;BMP180;32805;53.556;9.944;2023-02-01T14:08:43;100462.00;;;5.60
17142;BMP180;32805;53.556;9.944;2023-02-01T14:11:38;100469.00;;;5.90
17142;BMP180;32805;53.556;9.944;2023-02-01T14:17:33;100462.00;;;6.10
17142;BMP180;32805;53.556;9.944;2023-02-01T14:20:38;100481.00;;;6.10
17142;BMP180;32805;53.556;9.944;2023-02-01T14:23:12;100489.00;;;6.00
17142;BMP180;32805;53.556;9.944;2023-02-01T14:25:41;100478.00;;;5.90
17142;BMP180;32805;53.556;9.944;2023-02-01T14:28:21;100480.00;;;5.90
17142;BMP180;32805;53.556;9.944;2023-02-01T14:30:50;100502.00;;;5.80
17142;BMP180;32805;53.556;9.944;2023-02-01T14:33:22;100497.00;;;5.70
17142;BMP180;32805;53.556;9.944;2023-02-01T14:36:02;100569.00;;;5.50
17142;BMP180;32805;53.556;9.944;2023-02-01T14:38:31;100559.00;;;5.20
17142;BMP180;32805;53.556;9.944;2023-02-01T14:41:31;100548.00;;;5.00
17142;BMP180;32805;53.556;9.944;2023-02-01T14:44:25;100565.00;;;4.80
17142;BMP180;32805;53.556;9.944;2023-02-01T14:49:52;100565.00;;;4.50
17142;BMP180;32805;53.556;9.944;2023-02-01T14:52:29;100558.00;;;4.50
17142;BMP180;32805;53.556;9.944;2023-02-01T14:55:03;100567.00;;;4.40